sensor_id;sensor_type;location;lat;lon;timestamp;P1;durP1;ratioP1;P2;durP2;ratioP2
29430;SDS011;16404;49.902;10.074;2022-10-17T00:02:06;3.10;;;2.80;;
29430;SDS011;16404;49.902;10.074;2022-10-17T00:04:50;5.35;;;2.95;;
29430;SDS011;16404;49.902;10.074;2022-10-17T00:07:35;3.63;;;3.33;;
29430;SDS011;16404;49.902;10.074;2022-10-17T00:10:20;4.30;;;3.70;;
29430;SDS011;16404;49.902;10.074;2022-10-17T00:15:49;3.50;;;2.95;;
29430;SDS011;16404;49.902;10.074;2022-10-17T00:18:34;4.32;;;3.10;;
29430;SDS011;16404;49.902;10.074;2022-10-17T00:21:19;5.03;;;3.17;;
29430;SDS011;16404;49.902;10.074;2022-10-17T00:24:05;5.20;;;3.38;;
29430;SDS011;16404;49.902;10.074;2022-10-17T00:26:49;5.10;;;2.97;;
29430;SDS011;16404;49.902;10.074;2022-10-17T00:29:34;4.07;;;3.03;;
29430;SDS011;16404;49.902;10.074;2022-10-17T00:32:19;3.20;;;2.90;;
29430;SDS011;16404;49.902;10.074;2022-10-17T00:35:04;4.53;;;2.55;;
29430;SDS011;16404;49.902;10.074;2022-10-17T00:37:48;3.05;;;2.45;;
29430;SDS011;16404;49.902;10.074;2022-10-17T00:40:34;2.70;;;2.13;;
29430;SDS011;16404;49.902;10.074;2022-10-17T00:43:18;4.43;;;3.40;;
29430;SDS011;16404;49.902;10.074;2022-10-17T00:46:03;6.20;;;2.95;;
29430;SDS011;16404;49.902;10.074;2022-10-17T00:48:48;3.67;;;2.80;;
29430;SDS011;16404;49.902;10.074;2022-10-17T00:54:35;7.28;;;3.15;;
29430;SDS011;16404;49.902;10.074;2022-10-17T00:57:22;6.63;;;4.05;;
29430;SDS011;16404;49.902;10.074;2022-10-17T01:00:09;5.03;;;3.97;;
29430;SDS011;16404;49.902;10.074;2022-10-17T01:05:39;19.02;;;5.07;;
29430;SDS011;16404;49.902;10.074;2022-10-17T01:08:24;10.38;;;5.07;;
29430;SDS011;16404;49.902;10.074;2022-10-17T01:11:16;7.93;;;4.63;;
29430;SDS011;16404;49.902;10.074;2022-10-17T01:20:22;14.75;;;5.07;;
29430;SDS011;16404;49.902;10.074;2022-10-17T01:33:13;9.27;;;5.30;;
29430;SDS011;16404;49.902;10.074;2022-10-17T01:36:16;7.32;;;4.65;;
29430;SDS011;16404;49.902;10.074;2022-10-17T01:44:56;7.43;;;3.78;;
29430;SDS011;16404;49.902;10.074;2022-10-17T01:47:45;5.03;;;3.40;;
29430;SDS011;16404;49.902;10.074;2022-10-17T01:50:33;3.42;;;3.00;;
29430;SDS011;16404;49.902;10.074;2022-10-17T01:53:28;4.22;;;2.70;;
29430;SDS011;16404;49.902;10.074;2022-10-17T01:56:20;3.20;;;2.60;;
29430;SDS011;16404;49.902;10.074;2022-10-17T01:59:13;2.58;;;2.38;;
29430;SDS011;16404;49.902;10.074;2022-10-17T02:02:03;2.90;;;2.60;;
29430;SDS011;16404;49.902;10.074;2022-10-17T02:04:51;3.83;;;2.28;;
29430;SDS011;16404;49.902;10.074;2022-10-17T02:07:39;3.08;;;2.60;;
29430;SDS011;16404;49.902;10.074;2022-10-17T02:11:11;3.00;;;2.60;;
29430;SDS011;16404;49.902;10.074;2022-10-17T02:31:15;1.90;;;1.80;;
29430;SDS011;16404;49.902;10.074;2022-10-17T02:34:08;2.10;;;1.90;;
29430;SDS011;16404;49.902;10.074;2022-10-17T02:37:04;2.00;;;1.90;;
29430;SDS011;16404;49.902;10.074;2022-10-17T02:39:51;3.10;;;2.40;;
29430;SDS011;16404;49.902;10.074;2022-10-17T02:42:39;2.30;;;2.10;;
29430;SDS011;16404;49.902;10.074;2022-10-17T02:45:26;3.08;;;2.53;;
29430;SDS011;16404;49.902;10.074;2022-10-17T02:48:15;1.95;;;1.85;;
29430;SDS011;16404;49.902;10.074;2022-10-17T02:51:20;5.80;;;2.40;;
29430;SDS011;16404;49.902;10.074;2022-10-17T02:54:19;2.20;;;2.00;;
29430;SDS011;16404;49.902;10.074;2022-10-17T02:57:11;2.27;;;2.07;;
29430;SDS011;16404;49.902;10.074;2022-10-17T03:00:00;2.33;;;2.13;;
29430;SDS011;16404;49.902;10.074;2022-10-17T03:02:48;3.17;;;2.00;;
29430;SDS011;16404;49.902;10.074;2022-10-17T03:05:34;2.20;;;2.00;;
29430;SDS011;16404;49.902;10.074;2022-10-17T03:08:19;5.40;;;2.70;;
29430;SDS011;16404;49.902;10.074;2022-10-17T03:11:04;2.67;;;2.20;;
29430;SDS011;16404;49.902;10.074;2022-10-17T03:13:49;4.78;;;2.25;;
29430;SDS011;16404;49.902;10.074;2022-10-17T03:16:34;1.88;;;1.70;;
29430;SDS011;16404;49.902;10.074;2022-10-17T03:19:18;5.82;;;1.63;;
29430;SDS011;16404;49.902;10.074;2022-10-17T03:22:03;2.33;;;1.95;;
29430;SDS011;16404;49.902;10.074;2022-10-17T03:24:48;2.30;;;2.10;;
29430;SDS011;16404;49.902;10.074;2022-10-17T03:27:33;2.00;;;1.75;;
29430;SDS011;16404;49.902;10.074;2022-10-17T03:30:18;1.48;;;1.38;;
29430;SDS011;16404;49.902;10.074;2022-10-17T03:33:03;2.17;;;1.58;;
29430;SDS011;16404;49.902;10.074;2022-10-17T03:35:47;2.03;;;1.80;;
29430;SDS011;16404;49.902;10.074;2022-10-17T03:38:32;3.15;;;2.17;;
29430;SDS011;16404;49.902;10.074;2022-10-17T03:41:18;2.35;;;2.20;;
29430;SDS011;16404;49.902;10.074;2022-10-17T03:44:03;3.20;;;2.28;;
29430;SDS011;16404;49.902;10.074;2022-10-17T03:49:32;2.78;;;2.40;;
29430;SDS011;16404;49.902;10.074;2022-10-17T03:52:17;2.05;;;1.95;;
29430;SDS011;16404;49.902;10.074;2022-10-17T03:55:02;5.57;;;2.70;;
29430;SDS011;16404;49.902;10.074;2022-10-17T03:57:47;3.45;;;2.35;;
29430;SDS011;16404;49.902;10.074;2022-10-17T04:00:37;2.85;;;1.98;;
29430;SDS011;16404;49.902;10.074;2022-10-17T04:03:21;1.75;;;1.65;;
29430;SDS011;16404;49.902;10.074;2022-10-17T04:06:06;2.85;;;2.15;;
29430;SDS011;16404;49.902;10.074;2022-10-17T04:08:53;8.18;;;2.45;;
29430;SDS011;16404;49.902;10.074;2022-10-17T04:11:44;2.50;;;2.30;;
29430;SDS011;16404;49.902;10.074;2022-10-17T04:14:29;1.85;;;1.75;;
29430;SDS011;16404;49.902;10.074;2022-10-17T04:17:14;2.55;;;1.90;;
29430;SDS011;16404;49.902;10.074;2022-10-17T04:19:58;3.42;;;1.95;;
29430;SDS011;16404;49.902;10.074;2022-10-17T04:25:30;2.05;;;1.77;;
29430;SDS011;16404;49.902;10.074;2022-10-17T04:28:14;2.33;;;1.85;;
29430;SDS011;16404;49.902;10.074;2022-10-17T04:31:00;2.50;;;2.30;;
29430;SDS011;16404;49.902;10.074;2022-10-17T04:33:52;4.57;;;2.30;;
29430;SDS011;16404;49.902;10.074;2022-10-17T04:36:37;4.25;;;2.40;;
29430;SDS011;16404;49.902;10.074;2022-10-17T04:39:22;3.45;;;2.30;;
29430;SDS011;16404;49.902;10.074;2022-10-17T04:42:06;1.83;;;1.73;;
29430;SDS011;16404;49.902;10.074;2022-10-17T04:44:51;2.00;;;1.90;;
29430;SDS011;16404;49.902;10.074;2022-10-17T04:47:35;2.00;;;1.73;;
29430;SDS011;16404;49.902;10.074;2022-10-17T04:50:20;2.85;;;1.70;;
29430;SDS011;16404;49.902;10.074;2022-10-17T04:53:24;3.00;;;2.33;;
29430;SDS011;16404;49.902;10.074;2022-10-17T04:56:19;4.63;;;3.40;;
29430;SDS011;16404;49.902;10.074;2022-10-17T04:59:05;4.43;;;3.47;;
29430;SDS011;16404;49.902;10.074;2022-10-17T05:01:50;8.27;;;3.70;;
29430;SDS011;16404;49.902;10.074;2022-10-17T05:07:20;3.35;;;2.58;;
29430;SDS011;16404;49.902;10.074;2022-10-17T05:10:24;2.60;;;2.38;;
29430;SDS011;16404;49.902;10.074;2022-10-17T05:13:10;2.03;;;1.83;;
29430;SDS011;16404;49.902;10.074;2022-10-17T05:15:58;19.70;;;2.25;;
29430;SDS011;16404;49.902;10.074;2022-10-17T05:18:43;4.40;;;2.00;;
29430;SDS011;16404;49.902;10.074;2022-10-17T05:21:31;13.27;;;2.22;;
29430;SDS011;16404;49.902;10.074;2022-10-17T05:24:16;10.75;;;3.10;;
29430;SDS011;16404;49.902;10.074;2022-10-17T05:27:01;2.05;;;1.90;;
29430;SDS011;16404;49.902;10.074;2022-10-17T05:29:45;2.65;;;2.45;;
29430;SDS011;16404;49.902;10.074;2022-10-17T05:32:36;2.78;;;2.20;;
29430;SDS011;16404;49.902;10.074;2022-10-17T05:35:21;2.25;;;2.05;;
29430;SDS011;16404;49.902;10.074;2022-10-17T05:38:06;11.70;;;2.38;;
29430;SDS011;16404;49.902;10.074;2022-10-17T05:40:58;6.18;;;2.47;;
29430;SDS011;16404;49.902;10.074;2022-10-17T05:43:44;3.95;;;3.03;;
29430;SDS011;16404;49.902;10.074;2022-10-17T05:46:34;4.25;;;2.30;;
29430;SDS011;16404;49.902;10.074;2022-10-17T05:49:18;2.47;;;2.28;;
29430;SDS011;16404;49.902;10.074;2022-10-17T05:52:04;1.95;;;1.85;;
29430;SDS011;16404;49.902;10.074;2022-10-17T05:54:58;1.80;;;1.70;;
29430;SDS011;16404;49.902;10.074;2022-10-17T05:57:44;2.47;;;2.03;;
29430;SDS011;16404;49.902;10.074;2022-10-17T06:00:33;2.40;;;1.90;;
29430;SDS011;16404;49.902;10.074;2022-10-17T06:03:17;2.10;;;1.90;;
29430;SDS011;16404;49.902;10.074;2022-10-17T06:06:04;2.28;;;2.05;;
29430;SDS011;16404;49.902;10.074;2022-10-17T06:08:50;6.65;;;2.35;;
29430;SDS011;16404;49.902;10.074;2022-10-17T06:11:40;2.20;;;1.98;;
29430;SDS011;16404;49.902;10.074;2022-10-17T06:14:24;1.90;;;1.80;;
29430;SDS011;16404;49.902;10.074;2022-10-17T06:17:14;1.92;;;1.73;;
29430;SDS011;16404;49.902;10.074;2022-10-17T06:19:58;2.15;;;1.90;;
29430;SDS011;16404;49.902;10.074;2022-10-17T06:22:43;2.97;;;1.73;;
29430;SDS011;16404;49.902;10.074;2022-10-17T06:25:33;2.15;;;1.80;;
29430;SDS011;16404;49.902;10.074;2022-10-17T06:28:17;1.92;;;1.83;;
29430;SDS011;16404;49.902;10.074;2022-10-17T06:31:06;3.78;;;2.47;;
29430;SDS011;16404;49.902;10.074;2022-10-17T06:34:09;2.05;;;1.88;;
29430;SDS011;16404;49.902;10.074;2022-10-17T06:37:05;2.92;;;2.10;;
29430;SDS011;16404;49.902;10.074;2022-10-17T06:39:53;1.73;;;1.63;;
29430;SDS011;16404;49.902;10.074;2022-10-17T06:42:43;1.83;;;1.73;;
29430;SDS011;16404;49.902;10.074;2022-10-17T06:45:42;3.22;;;2.03;;
29430;SDS011;16404;49.902;10.074;2022-10-17T06:48:47;2.20;;;2.10;;
29430;SDS011;16404;49.902;10.074;2022-10-17T06:51:44;6.35;;;2.80;;
29430;SDS011;16404;49.902;10.074;2022-10-17T06:54:31;2.58;;;2.38;;
29430;SDS011;16404;49.902;10.074;2022-10-17T06:57:42;3.35;;;2.47;;
29430;SDS011;16404;49.902;10.074;2022-10-17T07:00:49;2.47;;;2.20;;
29430;SDS011;16404;49.902;10.074;2022-10-17T07:03:35;2.60;;;2.40;;
29430;SDS011;16404;49.902;10.074;2022-10-17T07:09:08;2.70;;;2.50;;
29430;SDS011;16404;49.902;10.074;2022-10-17T07:11:54;2.70;;;2.50;;
29430;SDS011;16404;49.902;10.074;2022-10-17T07:14:38;3.10;;;2.80;;
29430;SDS011;16404;49.902;10.074;2022-10-17T07:17:23;3.10;;;2.80;;
29430;SDS011;16404;49.902;10.074;2022-10-17T07:20:08;2.83;;;2.53;;
29430;SDS011;16404;49.902;10.074;2022-10-17T07:22:55;3.78;;;3.20;;
29430;SDS011;16404;49.902;10.074;2022-10-17T07:25:39;4.07;;;3.75;;
29430;SDS011;16404;49.902;10.074;2022-10-17T07:28:25;4.75;;;3.75;;
29430;SDS011;16404;49.902;10.074;2022-10-17T07:31:13;4.03;;;3.60;;
29430;SDS011;16404;49.902;10.074;2022-10-17T07:33:59;4.72;;;3.83;;
29430;SDS011;16404;49.902;10.074;2022-10-17T07:39:30;4.32;;;3.92;;
29430;SDS011;16404;49.902;10.074;2022-10-17T07:42:15;5.05;;;4.55;;
29430;SDS011;16404;49.902;10.074;2022-10-17T07:45:00;6.25;;;4.47;;
29430;SDS011;16404;49.902;10.074;2022-10-17T07:47:47;5.53;;;4.32;;
29430;SDS011;16404;49.902;10.074;2022-10-17T07:50:33;5.78;;;4.70;;
29430;SDS011;16404;49.902;10.074;2022-10-17T07:53:17;8.02;;;5.30;;
29430;SDS011;16404;49.902;10.074;2022-10-17T07:56:03;9.27;;;5.97;;
29430;SDS011;16404;49.902;10.074;2022-10-17T07:58:52;9.10;;;5.38;;
29430;SDS011;16404;49.902;10.074;2022-10-17T08:01:36;6.50;;;4.70;;
29430;SDS011;16404;49.902;10.074;2022-10-17T08:04:21;6.05;;;4.60;;
29430;SDS011;16404;49.902;10.074;2022-10-17T08:09:51;8.13;;;5.07;;
29430;SDS011;16404;49.902;10.074;2022-10-17T08:12:35;6.40;;;4.97;;
29430;SDS011;16404;49.902;10.074;2022-10-17T08:15:20;5.65;;;4.88;;
29430;SDS011;16404;49.902;10.074;2022-10-17T08:20:49;6.15;;;4.90;;
29430;SDS011;16404;49.902;10.074;2022-10-17T08:23:34;6.80;;;4.40;;
29430;SDS011;16404;49.902;10.074;2022-10-17T08:29:04;12.32;;;4.28;;
29430;SDS011;16404;49.902;10.074;2022-10-17T08:31:48;5.57;;;4.18;;
29430;SDS011;16404;49.902;10.074;2022-10-17T08:34:33;4.53;;;3.75;;
29430;SDS011;16404;49.902;10.074;2022-10-17T08:37:18;9.45;;;3.63;;
29430;SDS011;16404;49.902;10.074;2022-10-17T08:40:03;6.00;;;3.88;;
29430;SDS011;16404;49.902;10.074;2022-10-17T08:45:47;6.47;;;3.10;;
29430;SDS011;16404;49.902;10.074;2022-10-17T08:48:40;7.28;;;3.10;;
29430;SDS011;16404;49.902;10.074;2022-10-17T08:51:28;2.97;;;2.70;;
29430;SDS011;16404;49.902;10.074;2022-10-17T08:54:18;4.60;;;3.10;;
29430;SDS011;16404;49.902;10.074;2022-10-17T08:57:24;5.38;;;3.05;;
29430;SDS011;16404;49.902;10.074;2022-10-17T09:00:16;3.55;;;3.13;;
29430;SDS011;16404;49.902;10.074;2022-10-17T09:06:17;4.65;;;2.65;;
29430;SDS011;16404;49.902;10.074;2022-10-17T09:15:24;9.45;;;2.13;;
29430;SDS011;16404;49.902;10.074;2022-10-17T09:18:31;4.55;;;2.20;;
29430;SDS011;16404;49.902;10.074;2022-10-17T09:24:37;7.15;;;2.72;;
29430;SDS011;16404;49.902;10.074;2022-10-17T09:39:03;3.03;;;2.72;;
29430;SDS011;16404;49.902;10.074;2022-10-17T09:42:27;10.37;;;2.77;;
29430;SDS011;16404;49.902;10.074;2022-10-17T09:45:16;4.57;;;2.83;;
29430;SDS011;16404;49.902;10.074;2022-10-17T09:48:14;8.68;;;3.40;;
29430;SDS011;16404;49.902;10.074;2022-10-17T09:51:14;8.23;;;2.95;;
29430;SDS011;16404;49.902;10.074;2022-10-17T09:54:00;4.82;;;2.83;;
29430;SDS011;16404;49.902;10.074;2022-10-17T10:00:03;8.88;;;3.00;;
29430;SDS011;16404;49.902;10.074;2022-10-17T10:03:25;3.97;;;3.10;;
29430;SDS011;16404;49.902;10.074;2022-10-17T10:09:00;4.38;;;2.63;;
29430;SDS011;16404;49.902;10.074;2022-10-17T10:11:50;9.98;;;3.10;;
29430;SDS011;16404;49.902;10.074;2022-10-17T10:14:38;7.18;;;3.22;;
29430;SDS011;16404;49.902;10.074;2022-10-17T10:17:27;6.90;;;3.78;;
29430;SDS011;16404;49.902;10.074;2022-10-17T10:23:18;6.55;;;3.13;;
29430;SDS011;16404;49.902;10.074;2022-10-17T10:32:10;6.03;;;2.58;;
29430;SDS011;16404;49.902;10.074;2022-10-17T10:35:06;10.02;;;2.95;;
29430;SDS011;16404;49.902;10.074;2022-10-17T10:38:06;7.07;;;2.70;;
29430;SDS011;16404;49.902;10.074;2022-10-17T10:40:54;5.72;;;2.60;;
29430;SDS011;16404;49.902;10.074;2022-10-17T10:43:45;6.05;;;2.75;;
29430;SDS011;16404;49.902;10.074;2022-10-17T10:46:31;7.20;;;2.83;;
29430;SDS011;16404;49.902;10.074;2022-10-17T10:49:28;9.95;;;3.17;;
29430;SDS011;16404;49.902;10.074;2022-10-17T10:52:27;5.95;;;2.85;;
29430;SDS011;16404;49.902;10.074;2022-10-17T10:58:30;6.88;;;2.90;;
29430;SDS011;16404;49.902;10.074;2022-10-17T11:01:41;5.35;;;3.25;;
29430;SDS011;16404;49.902;10.074;2022-10-17T11:04:35;7.03;;;3.13;;
29430;SDS011;16404;49.902;10.074;2022-10-17T11:07:38;6.88;;;2.30;;
29430;SDS011;16404;49.902;10.074;2022-10-17T11:10:38;6.63;;;2.90;;
29430;SDS011;16404;49.902;10.074;2022-10-17T11:13:41;7.15;;;2.78;;
29430;SDS011;16404;49.902;10.074;2022-10-17T11:16:34;4.28;;;2.67;;
29430;SDS011;16404;49.902;10.074;2022-10-17T11:22:29;4.28;;;2.70;;
29430;SDS011;16404;49.902;10.074;2022-10-17T11:25:30;4.15;;;2.72;;
29430;SDS011;16404;49.902;10.074;2022-10-17T11:28:20;5.07;;;3.00;;
29430;SDS011;16404;49.902;10.074;2022-10-17T11:31:13;8.45;;;3.08;;
29430;SDS011;16404;49.902;10.074;2022-10-17T11:34:04;5.82;;;3.00;;
29430;SDS011;16404;49.902;10.074;2022-10-17T11:37:19;6.32;;;2.95;;
29430;SDS011;16404;49.902;10.074;2022-10-17T11:40:13;5.35;;;3.03;;
29430;SDS011;16404;49.902;10.074;2022-10-17T11:46:19;8.73;;;3.10;;
29430;SDS011;16404;49.902;10.074;2022-10-17T11:49:10;6.15;;;2.80;;
29430;SDS011;16404;49.902;10.074;2022-10-17T11:52:12;8.60;;;2.67;;
29430;SDS011;16404;49.902;10.074;2022-10-17T11:55:02;6.72;;;2.58;;
29430;SDS011;16404;49.902;10.074;2022-10-17T12:19:18;3.33;;;1.85;;
29430;SDS011;16404;49.902;10.074;2022-10-17T12:25:03;9.30;;;1.70;;
29430;SDS011;16404;49.902;10.074;2022-10-17T12:27:47;4.22;;;1.90;;
29430;SDS011;16404;49.902;10.074;2022-10-17T12:30:33;7.47;;;2.17;;
29430;SDS011;16404;49.902;10.074;2022-10-17T12:33:20;4.25;;;2.03;;
29430;SDS011;16404;49.902;10.074;2022-10-17T12:49:58;7.55;;;2.03;;
29430;SDS011;16404;49.902;10.074;2022-10-17T12:55:27;2.92;;;1.48;;
29430;SDS011;16404;49.902;10.074;2022-10-17T12:58:13;7.60;;;1.70;;
29430;SDS011;16404;49.902;10.074;2022-10-17T13:00:59;2.80;;;1.85;;
29430;SDS011;16404;49.902;10.074;2022-10-17T13:06:30;9.85;;;2.00;;
29430;SDS011;16404;49.902;10.074;2022-10-17T13:12:17;3.97;;;1.90;;
29430;SDS011;16404;49.902;10.074;2022-10-17T13:15:07;3.42;;;1.85;;
29430;SDS011;16404;49.902;10.074;2022-10-17T13:17:59;4.38;;;2.00;;
29430;SDS011;16404;49.902;10.074;2022-10-17T13:20:52;4.35;;;1.90;;
29430;SDS011;16404;49.902;10.074;2022-10-17T13:23:43;2.88;;;2.15;;
29430;SDS011;16404;49.902;10.074;2022-10-17T13:26:27;5.47;;;1.90;;
29430;SDS011;16404;49.902;10.074;2022-10-17T13:29:13;6.63;;;1.98;;
29430;SDS011;16404;49.902;10.074;2022-10-17T13:31:59;5.53;;;1.77;;
29430;SDS011;16404;49.902;10.074;2022-10-17T13:34:46;3.65;;;1.67;;
29430;SDS011;16404;49.902;10.074;2022-10-17T13:37:51;3.08;;;1.80;;
29430;SDS011;16404;49.902;10.074;2022-10-17T13:40:39;2.42;;;1.67;;
29430;SDS011;16404;49.902;10.074;2022-10-17T13:43:25;2.33;;;1.70;;
29430;SDS011;16404;49.902;10.074;2022-10-17T13:46:16;5.80;;;2.28;;
29430;SDS011;16404;49.902;10.074;2022-10-17T13:49:20;4.57;;;2.42;;
29430;SDS011;16404;49.902;10.074;2022-10-17T13:52:18;4.75;;;2.08;;
29430;SDS011;16404;49.902;10.074;2022-10-17T13:55:08;5.20;;;1.70;;
29430;SDS011;16404;49.902;10.074;2022-10-17T13:58:17;5.25;;;1.58;;
29430;SDS011;16404;49.902;10.074;2022-10-17T14:01:02;5.78;;;1.60;;
29430;SDS011;16404;49.902;10.074;2022-10-17T14:03:47;4.03;;;2.10;;
29430;SDS011;16404;49.902;10.074;2022-10-17T14:06:41;4.88;;;1.88;;
29430;SDS011;16404;49.902;10.074;2022-10-17T14:09:28;3.70;;;1.75;;
29430;SDS011;16404;49.902;10.074;2022-10-17T14:12:13;3.45;;;1.70;;
29430;SDS011;16404;49.902;10.074;2022-10-17T14:15:00;3.78;;;1.70;;
29430;SDS011;16404;49.902;10.074;2022-10-17T14:17:52;2.53;;;1.63;;
29430;SDS011;16404;49.902;10.074;2022-10-17T14:20:45;2.40;;;1.63;;
29430;SDS011;16404;49.902;10.074;2022-10-17T14:23:33;5.75;;;1.83;;
29430;SDS011;16404;49.902;10.074;2022-10-17T14:26:25;4.35;;;1.40;;
29430;SDS011;16404;49.902;10.074;2022-10-17T14:29:29;4.78;;;1.60;;
29430;SDS011;16404;49.902;10.074;2022-10-17T14:32:15;5.93;;;1.48;;
29430;SDS011;16404;49.902;10.074;2022-10-17T14:35:01;2.75;;;1.35;;
29430;SDS011;16404;49.902;10.074;2022-10-17T14:37:49;4.78;;;1.70;;
29430;SDS011;16404;49.902;10.074;2022-10-17T14:40:35;8.82;;;4.22;;
29430;SDS011;16404;49.902;10.074;2022-10-17T14:43:22;4.03;;;2.67;;
29430;SDS011;16404;49.902;10.074;2022-10-17T14:46:18;3.10;;;1.65;;
29430;SDS011;16404;49.902;10.074;2022-10-17T14:49:07;7.80;;;2.40;;
29430;SDS011;16404;49.902;10.074;2022-10-17T14:52:08;10.60;;;2.38;;
29430;SDS011;16404;49.902;10.074;2022-10-17T14:54:59;6.55;;;2.00;;
29430;SDS011;16404;49.902;10.074;2022-10-17T14:57:58;6.55;;;1.98;;
29430;SDS011;16404;49.902;10.074;2022-10-17T15:00:42;3.30;;;1.70;;
29430;SDS011;16404;49.902;10.074;2022-10-17T15:03:27;5.20;;;1.90;;
29430;SDS011;16404;49.902;10.074;2022-10-17T15:06:20;4.85;;;1.77;;
29430;SDS011;16404;49.902;10.074;2022-10-17T15:11:58;2.65;;;1.63;;
29430;SDS011;16404;49.902;10.074;2022-10-17T15:14:45;3.92;;;1.75;;
29430;SDS011;16404;49.902;10.074;2022-10-17T15:17:31;2.85;;;1.58;;
29430;SDS011;16404;49.902;10.074;2022-10-17T15:20:17;4.05;;;1.80;;
29430;SDS011;16404;49.902;10.074;2022-10-17T15:23:02;9.43;;;2.03;;
29430;SDS011;16404;49.902;10.074;2022-10-17T15:25:47;5.65;;;2.22;;
29430;SDS011;16404;49.902;10.074;2022-10-17T15:28:32;6.38;;;2.03;;
29430;SDS011;16404;49.902;10.074;2022-10-17T15:31:18;2.33;;;1.60;;
29430;SDS011;16404;49.902;10.074;2022-10-17T15:34:05;5.00;;;1.63;;
29430;SDS011;16404;49.902;10.074;2022-10-17T15:36:50;4.13;;;2.10;;
29430;SDS011;16404;49.902;10.074;2022-10-17T15:39:36;9.90;;;2.50;;
29430;SDS011;16404;49.902;10.074;2022-10-17T15:42:22;7.85;;;2.40;;
29430;SDS011;16404;49.902;10.074;2022-10-17T15:45:11;10.85;;;3.42;;
29430;SDS011;16404;49.902;10.074;2022-10-17T15:47:59;14.27;;;5.32;;
29430;SDS011;16404;49.902;10.074;2022-10-17T15:50:48;8.68;;;2.45;;
29430;SDS011;16404;49.902;10.074;2022-10-17T15:53:33;5.63;;;2.17;;
29430;SDS011;16404;49.902;10.074;2022-10-17T15:56:22;6.38;;;2.20;;
29430;SDS011;16404;49.902;10.074;2022-10-17T15:59:13;6.05;;;2.33;;
29430;SDS011;16404;49.902;10.074;2022-10-17T16:02:00;9.57;;;2.08;;
29430;SDS011;16404;49.902;10.074;2022-10-17T16:04:45;6.47;;;2.72;;
29430;SDS011;16404;49.902;10.074;2022-10-17T16:07:31;7.38;;;3.03;;
29430;SDS011;16404;49.902;10.074;2022-10-17T16:10:16;7.53;;;3.33;;
29430;SDS011;16404;49.902;10.074;2022-10-17T16:15:45;5.68;;;2.35;;
29430;SDS011;16404;49.902;10.074;2022-10-17T16:18:30;7.03;;;2.45;;
29430;SDS011;16404;49.902;10.074;2022-10-17T16:21:15;9.18;;;2.08;;
29430;SDS011;16404;49.902;10.074;2022-10-17T16:24:00;6.80;;;2.70;;
29430;SDS011;16404;49.902;10.074;2022-10-17T16:29:29;3.28;;;2.30;;
29430;SDS011;16404;49.902;10.074;2022-10-17T16:32:14;10.15;;;2.50;;
29430;SDS011;16404;49.902;10.074;2022-10-17T16:34:59;3.83;;;2.30;;
29430;SDS011;16404;49.902;10.074;2022-10-17T16:37:44;6.10;;;2.47;;
29430;SDS011;16404;49.902;10.074;2022-10-17T16:40:30;5.35;;;2.30;;
29430;SDS011;16404;49.902;10.074;2022-10-17T16:43:15;4.38;;;2.28;;
29430;SDS011;16404;49.902;10.074;2022-10-17T16:46:01;5.28;;;2.60;;
29430;SDS011;16404;49.902;10.074;2022-10-17T16:48:48;7.30;;;2.45;;
29430;SDS011;16404;49.902;10.074;2022-10-17T16:51:33;3.75;;;2.40;;
29430;SDS011;16404;49.902;10.074;2022-10-17T16:57:02;6.63;;;2.83;;
29430;SDS011;16404;49.902;10.074;2022-10-17T17:02:32;7.45;;;2.30;;
29430;SDS011;16404;49.902;10.074;2022-10-17T17:05:16;11.98;;;2.70;;
29430;SDS011;16404;49.902;10.074;2022-10-17T17:08:01;6.70;;;2.90;;
29430;SDS011;16404;49.902;10.074;2022-10-17T17:10:47;7.70;;;2.58;;
29430;SDS011;16404;49.902;10.074;2022-10-17T17:13:36;5.70;;;2.63;;
29430;SDS011;16404;49.902;10.074;2022-10-17T17:19:08;7.38;;;2.85;;
29430;SDS011;16404;49.902;10.074;2022-10-17T17:21:59;7.47;;;2.63;;
29430;SDS011;16404;49.902;10.074;2022-10-17T17:24:44;5.10;;;3.00;;
29430;SDS011;16404;49.902;10.074;2022-10-17T17:27:29;5.15;;;2.50;;
29430;SDS011;16404;49.902;10.074;2022-10-17T17:30:14;5.68;;;2.90;;
29430;SDS011;16404;49.902;10.074;2022-10-17T17:32:59;6.28;;;2.75;;
29430;SDS011;16404;49.902;10.074;2022-10-17T17:35:43;5.97;;;2.60;;
29430;SDS011;16404;49.902;10.074;2022-10-17T17:38:28;6.60;;;3.45;;
29430;SDS011;16404;49.902;10.074;2022-10-17T17:41:15;10.02;;;4.32;;
29430;SDS011;16404;49.902;10.074;2022-10-17T17:44:00;7.43;;;3.78;;
29430;SDS011;16404;49.902;10.074;2022-10-17T17:46:45;4.07;;;3.45;;
29430;SDS011;16404;49.902;10.074;2022-10-17T17:49:30;4.95;;;3.42;;
29430;SDS011;16404;49.902;10.074;2022-10-17T17:52:14;8.52;;;3.50;;
29430;SDS011;16404;49.902;10.074;2022-10-17T17:54:59;6.10;;;3.35;;
29430;SDS011;16404;49.902;10.074;2022-10-17T17:57:44;10.18;;;3.38;;
29430;SDS011;16404;49.902;10.074;2022-10-17T18:00:29;13.85;;;3.60;;
29430;SDS011;16404;49.902;10.074;2022-10-17T18:03:13;16.55;;;3.58;;
29430;SDS011;16404;49.902;10.074;2022-10-17T18:05:58;5.30;;;3.22;;
29430;SDS011;16404;49.902;10.074;2022-10-17T18:08:43;9.38;;;3.50;;
29430;SDS011;16404;49.902;10.074;2022-10-17T18:11:32;6.38;;;3.20;;
29430;SDS011;16404;49.902;10.074;2022-10-17T18:14:17;8.02;;;3.88;;
29430;SDS011;16404;49.902;10.074;2022-10-17T18:17:06;9.00;;;3.75;;
29430;SDS011;16404;49.902;10.074;2022-10-17T18:19:51;5.50;;;3.67;;
29430;SDS011;16404;49.902;10.074;2022-10-17T18:22:35;6.32;;;3.50;;
29430;SDS011;16404;49.902;10.074;2022-10-17T18:25:20;8.05;;;4.00;;
29430;SDS011;16404;49.902;10.074;2022-10-17T18:28:04;10.20;;;4.20;;
29430;SDS011;16404;49.902;10.074;2022-10-17T18:30:49;14.43;;;3.90;;
29430;SDS011;16404;49.902;10.074;2022-10-17T18:33:34;11.68;;;4.00;;
29430;SDS011;16404;49.902;10.074;2022-10-17T18:36:18;8.13;;;3.97;;
29430;SDS011;16404;49.902;10.074;2022-10-17T18:39:04;11.88;;;3.78;;
29430;SDS011;16404;49.902;10.074;2022-10-17T18:41:48;4.32;;;3.40;;
29430;SDS011;16404;49.902;10.074;2022-10-17T18:44:33;15.50;;;4.50;;
29430;SDS011;16404;49.902;10.074;2022-10-17T18:47:18;10.38;;;4.45;;
29430;SDS011;16404;49.902;10.074;2022-10-17T18:50:02;5.93;;;3.65;;
29430;SDS011;16404;49.902;10.074;2022-10-17T18:52:47;11.45;;;4.32;;
29430;SDS011;16404;49.902;10.074;2022-10-17T18:55:32;7.47;;;4.65;;
29430;SDS011;16404;49.902;10.074;2022-10-17T18:58:17;6.50;;;3.97;;
29430;SDS011;16404;49.902;10.074;2022-10-17T19:01:03;9.90;;;4.18;;
29430;SDS011;16404;49.902;10.074;2022-10-17T19:03:49;7.22;;;4.82;;
29430;SDS011;16404;49.902;10.074;2022-10-17T19:06:35;10.00;;;4.53;;
29430;SDS011;16404;49.902;10.074;2022-10-17T19:12:05;9.38;;;4.13;;
29430;SDS011;16404;49.902;10.074;2022-10-17T19:14:49;16.35;;;4.43;;
29430;SDS011;16404;49.902;10.074;2022-10-17T19:17:35;7.65;;;3.55;;
29430;SDS011;16404;49.902;10.074;2022-10-17T19:20:20;8.98;;;3.58;;
29430;SDS011;16404;49.902;10.074;2022-10-17T19:23:04;12.70;;;3.95;;
29430;SDS011;16404;49.902;10.074;2022-10-17T19:25:49;10.25;;;4.72;;
29430;SDS011;16404;49.902;10.074;2022-10-17T19:28:34;6.47;;;4.45;;
29430;SDS011;16404;49.902;10.074;2022-10-17T19:31:23;8.95;;;4.72;;
29430;SDS011;16404;49.902;10.074;2022-10-17T19:34:08;7.13;;;4.07;;
29430;SDS011;16404;49.902;10.074;2022-10-17T19:36:54;10.60;;;4.50;;
29430;SDS011;16404;49.902;10.074;2022-10-17T19:39:38;9.25;;;5.13;;
29430;SDS011;16404;49.902;10.074;2022-10-17T19:42:23;9.95;;;4.72;;
29430;SDS011;16404;49.902;10.074;2022-10-17T19:45:08;11.48;;;4.25;;
29430;SDS011;16404;49.902;10.074;2022-10-17T19:47:53;11.65;;;4.00;;